Time;durP1;ratioP1;P1;durP2;ratioP2;P2;SDS_P1;SDS_P2;PMS_P1;PMS_P2;Temp;Humidity;BMP_temperature;BMP_pressure;BME280_temperature;BME280_humidity;BME280_pressure;Samples;Min_cycle;Max_cycle;Signal;HPM_P1;HPM_P2
2023/02/08 00:04:44;;;;;;;29.90;15.40;;;;;;;2.62;73.84;103093.91;682508;1259;139219;-82
2023/02/08 00:19:48;;;;;;;31.50;14.50;;;;;;;2.54;73.97;103101.23;682661;1262;139159;-82
2023/02/08 00:34:51;;;;;;;33.50;15.10;;;;;;;2.43;74.24;103102.20;682757;1262;139885;-82
2023/02/08 00:49:55;;;;;;;41.50;17.30;;;;;;;2.37;74.69;103108.98;682726;1262;138918;-82
2023/02/08 01:04:58;;;;;;;38.40;17.30;;;;;;;2.33;74.88;103108.15;682255;1263;138813;-82
2023/02/08 01:20:02;;;;;;;47.80;21.20;;;;;;;2.18;75.27;103105.34;682760;1262;138994;-82
2023/02/08 01:35:06;;;;;;;43.90;20.90;;;;;;;2.17;74.98;103113.45;682573;1262;139178;-82
2023/02/08 01:50:10;;;;;;;40.10;19.00;;;;;;;2.10;74.97;103115.08;682343;1262;138688;-82
2023/02/08 02:05:15;;;;;;;40.60;18.20;;;;;;;2.10;75.06;103110.75;682164;1263;139284;-82
2023/02/08 02:20:24;;;;;;;33.10;14.30;;;;;;;2.02;75.21;103111.33;682445;1266;138514;-82
2023/02/08 02:35:42;;;;;;;28.70;14.20;;;;;;;1.95;75.38;103110.67;682261;1260;139191;-81
2023/02/08 02:50:57;;;;;;;29.50;12.70;;;;;;;1.90;75.15;103124.88;682396;1262;139597;-82
2023/02/08 03:06:09;;;;;;;27.60;12.60;;;;;;;1.84;75.51;103133.20;682227;1262;139107;-83
2023/02/08 03:21:37;;;;;;;22.00;10.90;;;;;;;1.81;75.37;103139.42;682567;1262;138744;-82
2023/02/08 03:36:52;;;;;;;29.80;12.90;;;;;;;1.86;75.26;103161.48;682543;1262;139173;-82
2023/02/08 03:52:00;;;;;;;38.20;20.60;;;;;;;1.93;74.86;103169.73;682554;1262;139505;-82
2023/02/08 04:07:04;;;;;;;21.50;11.90;;;;;;;1.91;74.48;103175.95;682974;1262;138656;-83
2023/02/08 04:22:08;;;;;;;26.50;11.60;;;;;;;1.95;74.28;103183.86;682790;1262;140031;-82
2023/02/08 04:37:11;;;;;;;33.40;15.20;;;;;;;1.91;73.64;103188.03;682910;1259;139149;-82
2023/02/08 04:52:15;;;;;;;29.90;14.30;;;;;;;1.76;73.91;103182.41;683061;1273;138497;-82
2023/02/08 05:07:18;;;;;;;28.50;13.00;;;;;;;1.79;73.38;103181.02;682926;1263;139191;-82
2023/02/08 05:22:21;;;;;;;80.30;28.90;;;;;;;1.90;73.16;103191.84;682530;1263;139546;-83
2023/02/08 05:37:24;;;;;;;110.70;39.00;;;;;;;1.88;73.27;103200.64;682249;1260;139580;-83
2023/02/08 05:52:28;;;;;;;40.70;21.80;;;;;;;1.75;72.94;103209.00;682376;1262;139237;-82
2023/02/08 06:07:31;;;;;;;36.60;19.00;;;;;;;1.73;73.33;103219.88;682632;1262;139132;-82
2023/02/08 06:22:34;;;;;;;62.20;28.10;;;;;;;1.72;73.06;103228.86;682549;1263;138872;-83
2023/02/08 06:37:37;;;;;;;103.40;48.90;;;;;;;1.71;73.09;103245.60;682562;1261;139904;-81
2023/02/08 06:52:41;;;;;;;37.80;20.20;;;;;;;1.48;73.23;103240.49;682611;1262;139735;-82
2023/02/08 07:07:44;;;;;;;55.20;25.60;;;;;;;1.41;73.60;103238.27;682588;1267;139211;-83
2023/02/08 07:22:47;;;;;;;588.10;187.10;;;;;;;1.28;72.82;103246.05;682638;1262;139411;-83
2023/02/08 07:37:51;;;;;;;1079.40;341.40;;;;;;;1.55;73.20;103257.19;682679;1263;140102;-83
2023/02/08 07:52:54;;;;;;;184.20;66.90;;;;;;;2.50;72.57;103261.94;682337;1263;139530;-81
2023/02/08 08:07:57;;;;;;;261.70;86.70;;;;;;;3.23;72.41;103258.07;682427;1263;139434;-82
2023/02/08 08:23:01;;;;;;;223.80;95.00;;;;;;;4.06;71.08;103251.77;682571;1262;138904;-82
2023/02/08 08:38:04;;;;;;;163.40;85.80;;;;;;;4.55;69.70;103260.61;682652;1263;140048;-82
2023/02/08 08:53:08;;;;;;;888.90;299.50;;;;;;;5.08;68.25;103277.62;682239;1264;139038;-82
2023/02/08 09:08:12;;;;;;;53.30;27.10;;;;;;;5.64;66.43;103286.31;682410;1269;139614;-82
2023/02/08 09:23:15;;;;;;;34.30;18.50;;;;;;;6.13;65.59;103297.71;682594;1259;138805;-81
2023/02/08 09:38:19;;;;;;;37.40;18.90;;;;;;;6.61;63.85;103289.16;682502;1264;139343;-81
2023/02/08 09:53:31;;;;;;;163.50;68.80;;;;;;;7.14;63.08;103280.21;682318;1262;139294;-80
2023/02/08 10:08:35;;;;;;;234.90;105.00;;;;;;;7.35;63.56;103289.95;682584;1259;138879;-79
2023/02/08 10:24:14;;;;;;;222.60;78.50;;;;;;;7.56;62.83;103288.16;682550;1259;139395;-79
2023/02/08 10:39:31;;;;;;;50.00;31.80;;;;;;;8.33;60.74;103284.75;682715;1263;139503;-80
2023/02/08 10:54:37;;;;;;;67.20;32.60;;;;;;;8.84;59.60;103283.48;682511;1259;138857;-80
2023/02/08 11:09:40;;;;;;;84.00;47.90;;;;;;;8.06;57.32;103258.52;682523;1262;138447;-80
2023/02/08 11:24:52;;;;;;;63.70;29.80;;;;;;;7.97;57.15;103246.05;682616;1258;138982;-80
2023/02/08 11:39:58;;;;;;;45.10;25.70;;;;;;;8.09;56.45;103239.24;682521;1262;138272;-80
2023/02/08 11:55:24;;;;;;;83.00;37.00;;;;;;;7.95;55.36;103228.34;682609;1262;139218;-80
2023/02/08 12:10:54;;;;;;;73.10;36.90;;;;;;;8.07;55.24;103218.74;682331;1262;138702;-79
2023/02/08 12:26:17;;;;;;;35.40;18.80;;;;;;;8.43;55.03;103210.83;682442;1259;138062;-79
2023/02/08 12:41:59;;;;;;;37.40;19.70;;;;;;;8.68;53.45;103226.05;682744;1259;139075;-80
2023/02/08 12:57:05;;;;;;;40.50;20.80;;;;;;;8.74;52.51;103221.69;681964;1259;138189;-79
2023/02/08 13:12:17;;;;;;;33.30;17.40;;;;;;;8.44;51.82;103210.10;682292;1259;139354;-79
2023/02/08 13:27:21;;;;;;;31.30;16.90;;;;;;;8.51;51.10;103194.02;682260;1259;139231;-79
2023/02/08 13:42:41;;;;;;;41.80;21.40;;;;;;;12.71;46.98;103188.48;682438;1260;139508;-79
2023/02/08 13:57:53;;;;;;;48.00;24.50;;;;;;;16.13;41.83;103168.27;682284;1263;138421;-78
2023/02/08 14:13:07;;;;;;;57.90;29.80;;;;;;;16.31;40.76;103159.91;682326;1259;138515;-79
2023/02/08 14:28:32;;;;;;;105.90;48.50;;;;;;;16.58;40.63;103152.06;682159;1260;139405;-79
2023/02/08 14:43:41;;;;;;;146.70;91.10;;;;;;;15.69;40.56;103138.15;682244;1262;139633;-79
2023/02/08 14:59:14;;;;;;;62.30;29.30;;;;;;;10.77;44.14;103121.80;682188;1259;139955;-79
2023/02/08 15:14:20;;;;;;;57.00;26.60;;;;;;;8.60;48.11;103124.80;682371;1263;139093;-78
2023/02/08 15:29:28;;;;;;;161.40;54.60;;;;;;;9.05;49.52;103133.52;682280;1259;138663;-79
2023/02/08 15:44:46;;;;;;;180.70;71.20;;;;;;;6.89;50.55;103127.43;682410;1259;138502;-79
2023/02/08 15:59:50;;;;;;;112.90;47.00;;;;;;;5.05;52.64;103127.42;682312;1262;138924;-80
2023/02/08 16:14:57;;;;;;;146.00;64.20;;;;;;;4.23;54.06;103122.80;682369;1263;138143;-80
2023/02/08 16:30:01;;;;;;;90.50;38.80;;;;;;;3.61;55.46;103122.86;682350;1263;139006;-80
2023/02/08 16:45:08;;;;;;;488.00;168.90;;;;;;;3.13;56.56;103113.41;682403;1264;138263;-81
2023/02/08 17:00:18;;;;;;;330.10;129.30;;;;;;;2.18;57.30;103105.15;682429;1260;138815;-82
2023/02/08 17:15:23;;;;;;;150.80;55.50;;;;;;;1.55;58.86;103082.97;682438;1260;138483;-83
2023/02/08 17:30:34;;;;;;;101.10;41.40;;;;;;;1.29;60.69;103082.40;682586;1260;138464;-83
2023/02/08 17:45:39;;;;;;;83.40;35.70;;;;;;;1.28;62.23;103084.66;682357;1264;138668;-83
2023/02/08 18:00:43;;;;;;;67.50;31.30;;;;;;;1.26;63.81;103067.92;682500;1262;138868;-83
2023/02/08 18:15:47;;;;;;;105.20;39.30;;;;;;;1.02;64.92;103061.30;682320;1260;138933;-83
2023/02/08 18:30:50;;;;;;;94.30;33.80;;;;;;;0.93;65.31;103053.40;682529;1265;139947;-83
2023/02/08 18:46:01;;;;;;;72.30;28.70;;;;;;;1.04;65.90;103048.89;682690;1263;139585;-82
2023/02/08 19:01:14;;;;;;;84.40;33.00;;;;;;;0.95;65.83;103030.99;682371;1260;139654;-83
2023/02/08 19:16:20;;;;;;;61.40;27.30;;;;;;;0.97;65.25;103025.48;682125;1264;139122;-83
2023/02/08 19:31:25;;;;;;;75.60;31.10;;;;;;;0.94;65.34;103013.59;682593;1263;139188;-82
2023/02/08 19:46:33;;;;;;;84.20;29.70;;;;;;;0.68;64.70;103006.79;682383;1263;139478;-81
2023/02/08 20:01:39;;;;;;;66.30;27.00;;;;;;;0.16;64.35;103000.69;682314;1263;139526;-81
2023/02/08 20:16:42;;;;;;;111.00;37.70;;;;;;;-0.21;64.16;102983.17;681961;1263;138853;-82
2023/02/08 20:31:48;;;;;;;294.80;106.20;;;;;;;-0.29;64.48;102968.88;682146;1264;139139;-81
2023/02/08 20:46:53;;;;;;;65.30;26.60;;;;;;;-0.32;64.52;102963.20;681897;1265;139413;-81
2023/02/08 21:01:56;;;;;;;68.80;30.90;;;;;;;-0.52;64.42;102953.90;682058;1265;182480;-82
2023/02/08 21:17:00;;;;;;;64.90;27.30;;;;;;;-0.81;64.53;102948.36;681944;1260;139277;-82
2023/02/08 21:32:03;;;;;;;106.60;39.20;;;;;;;-1.16;64.46;102944.48;682130;1269;139051;-82
2023/02/08 21:47:09;;;;;;;55.50;24.90;;;;;;;-1.52;64.63;102918.40;681927;1263;139154;-82
2023/02/08 22:02:14;;;;;;;98.70;33.20;;;;;;;-1.58;65.27;102897.27;682391;1263;139485;-82
2023/02/08 22:17:18;;;;;;;34.20;15.30;;;;;;;-1.65;66.15;102879.89;682206;1263;139634;-83
2023/02/08 22:32:29;;;;;;;54.50;22.00;;;;;;;-1.47;67.30;102865.88;682277;1265;139144;-82
2023/02/08 22:47:45;;;;;;;66.50;25.40;;;;;;;-1.25;67.14;102870.09;682436;1264;139076;-83
2023/02/08 23:02:49;;;;;;;52.10;21.70;;;;;;;-1.29;67.15;102855.48;682505;1263;139045;-84
2023/02/08 23:17:53;;;;;;;153.60;49.10;;;;;;;-1.39;67.52;102842.73;682658;1263;139019;-83
2023/02/08 23:32:56;;;;;;;219.90;77.20;;;;;;;-1.61;66.73;102843.86;682488;1260;139339;-83
2023/02/08 23:47:59;;;;;;;149.10;49.70;;;;;;;-1.94;66.63;102833.60;682518;1261;139519;-84
